Time;durP1;ratioP1;P1;durP2;ratioP2;P2;SDS_P1;SDS_P2;PMS_P1;PMS_P2;Temp;Humidity;BMP_temperature;BMP_pressure;BME280_temperature;BME280_humidity;BME280_pressure;Samples;Min_cycle;Max_cycle;Signal;HPM_P1;HPM_P2
2023/06/24 04:01:38;;;;;;;5.70;4.85;;;17.80;99.90;;;;;;5423690;23;20082;-69
2023/06/24 04:04:04;;;;;;;5.45;4.35;;;17.70;99.90;;;;;;4978242;28;20031;-67
2023/06/24 04:06:29;;;;;;;;;;;17.70;99.90;;;;;;4979086;28;20023;-67
2023/06/24 04:08:55;;;;;;;6.78;4.70;;;17.70;99.90;;;;;;4995934;28;19913;-67
2023/06/24 04:11:21;;;;;;;5.60;4.90;;;17.70;99.90;;;;;;4978549;28;20026;-68
2023/06/24 04:13:48;;;;;;;7.22;4.22;;;17.70;99.90;;;;;;4995779;28;20043;-67
2023/06/24 04:16:14;;;;;;;5.88;5.25;;;17.80;99.90;;;;;;5001230;23;20051;-74
2023/06/24 04:18:39;;;;;;;5.65;4.57;;;17.80;99.90;;;;;;4977428;28;20031;-74
2023/06/24 04:21:08;;;;;;;6.55;4.93;;;17.80;99.90;;;;;;4978587;28;20033;-74
2023/06/24 04:23:34;;;;;;;5.20;4.18;;;17.80;99.90;;;;;;4979236;28;20084;-75
2023/06/24 04:25:59;;;;;;;7.03;4.77;;;17.90;99.90;;;;;;4982149;28;20026;-74
2023/06/24 04:28:25;;;;;;;6.70;4.85;;;17.90;99.90;;;;;;4986276;28;20315;-74
2023/06/24 04:30:51;;;;;;;7.05;5.47;;;17.90;99.90;;;;;;4981992;28;20030;-75
2023/06/24 04:33:17;;;;;;;7.00;4.50;;;17.90;99.90;;;;;;4980113;28;20022;-75
2023/06/24 04:35:44;;;;;;;5.70;4.70;;;17.90;99.90;;;;;;4980264;28;20031;-74
2023/06/24 04:38:09;;;;;;;10.95;4.90;;;18.00;99.90;;;;;;4977636;28;20517;-74
2023/06/24 04:40:35;;;;;;;6.47;4.88;;;18.00;99.90;;;;;;4977477;28;20023;-75
2023/06/24 04:43:00;;;;;;;6.65;4.57;;;18.00;99.90;;;;;;4978104;28;20157;-76
2023/06/24 04:45:26;;;;;;;8.85;4.70;;;18.00;99.90;;;;;;4978583;28;20030;-74
2023/06/24 04:47:52;;;;;;;5.82;4.88;;;18.10;99.90;;;;;;4995765;28;20057;-74
2023/06/24 04:50:17;;;;;;;6.30;4.90;;;18.10;99.90;;;;;;4995460;28;20077;-75
2023/06/24 04:52:44;;;;;;;8.37;4.63;;;18.10;99.90;;;;;;4994728;28;20529;-74
2023/06/24 04:55:10;;;;;;;6.82;5.22;;;18.20;99.90;;;;;;4977996;28;20265;-75
2023/06/24 04:57:35;;;;;;;7.43;4.80;;;18.30;99.90;;;;;;4978106;28;20026;-75
2023/06/24 05:00:02;;;;;;;7.63;5.05;;;18.30;99.90;;;;;;4995898;28;20022;-74
2023/06/24 05:02:28;;;;;;;6.35;5.47;;;18.30;99.90;;;;;;4994862;28;20049;-75
2023/06/24 05:04:53;;;;;;;9.07;5.38;;;18.30;99.90;;;;;;4978309;28;20479;-75
2023/06/24 05:07:19;;;;;;;9.90;5.30;;;18.30;99.90;;;;;;4977452;28;20501;-74
2023/06/24 05:09:49;;;;;;;6.65;5.03;;;18.40;99.90;;;;;;4977405;28;20037;-75
2023/06/24 05:12:15;;;;;;;5.68;4.60;;;18.40;99.90;;;;;;4977628;28;20030;-74
2023/06/24 05:14:40;;;;;;;9.50;5.30;;;18.50;99.90;;;;;;4978139;28;20045;-75
2023/06/24 05:17:06;;;;;;;7.72;4.30;;;18.50;99.90;;;;;;4977431;28;20050;-75
2023/06/24 05:19:32;;;;;;;6.13;5.20;;;18.60;99.90;;;;;;4977069;28;20073;-75
2023/06/24 05:21:57;;;;;;;5.38;4.47;;;18.60;99.90;;;;;;4977263;28;20035;-74
2023/06/24 05:24:23;;;;;;;7.93;4.97;;;18.60;99.90;;;;;;4977705;28;20052;-74
2023/06/24 05:26:50;;;;;;;6.93;4.88;;;18.70;99.90;;;;;;4977527;28;20037;-76
2023/06/24 05:29:16;;;;;;;5.75;4.40;;;18.70;99.90;;;;;;4995343;28;20026;-74
2023/06/24 05:31:42;;;;;;;8.20;5.05;;;18.70;99.90;;;;;;4995065;28;20041;-75
2023/06/24 05:34:08;;;;;;;7.63;5.10;;;18.80;99.90;;;;;;4977445;28;20023;-75
2023/06/24 05:36:34;;;;;;;6.43;5.32;;;18.80;99.90;;;;;;4978021;28;20442;-74
2023/06/24 05:39:00;;;;;;;;;;;18.80;99.90;;;;;;4977992;28;20029;-74
2023/06/24 05:41:25;;;;;;;9.52;5.20;;;18.90;99.90;;;;;;4978972;28;19905;-75
2023/06/24 05:44:02;;;;;;;6.47;4.30;;;18.90;99.90;;;;;;4997961;28;20038;-75
2023/06/24 05:46:27;;;;;;;7.28;4.93;;;19.00;99.90;;;;;;4997655;28;20026;-75
2023/06/24 05:48:53;;;;;;;10.55;5.20;;;19.00;99.90;;;;;;4978494;28;20451;-75
2023/06/24 05:51:18;;;;;;;7.70;5.13;;;19.00;99.90;;;;;;4978637;28;20030;-70
2023/06/24 05:53:44;;;;;;;8.93;4.60;;;19.00;99.90;;;;;;4977545;28;20035;-70
2023/06/24 05:56:09;;;;;;;9.52;4.97;;;19.10;99.90;;;;;;4995523;28;20165;-71
2023/06/24 05:58:35;;;;;;;9.43;4.25;;;19.10;99.90;;;;;;4998477;28;20141;-69
2023/06/24 06:01:01;;;;;;;8.90;4.50;;;19.30;99.90;;;;;;4979520;28;20029;-70
2023/06/24 06:03:26;;;;;;;7.90;5.15;;;19.50;99.90;;;;;;4977628;28;20317;-70
2023/06/24 06:05:52;;;;;;;6.07;4.47;;;19.60;99.90;;;;;;4994117;28;20061;-70
2023/06/24 06:08:17;;;;;;;6.15;4.90;;;19.70;99.90;;;;;;4978136;28;20027;-71
2023/06/24 06:10:43;;;;;;;5.00;4.13;;;19.70;99.90;;;;;;4980428;28;20035;-70
2023/06/24 06:13:08;;;;;;;9.13;4.90;;;19.80;99.90;;;;;;4963793;28;20030;-70
2023/06/24 06:15:34;;;;;;;5.53;4.40;;;20.00;99.90;;;;;;4981118;28;20034;-71
2023/06/24 06:17:59;;;;;;;6.43;5.03;;;20.20;99.90;;;;;;4980666;28;20022;-70
2023/06/24 06:20:25;;;;;;;5.63;4.15;;;20.30;99.90;;;;;;4961420;28;20391;-70
2023/06/24 06:22:51;;;;;;;6.45;4.68;;;20.40;99.90;;;;;;4975599;28;20035;-70
2023/06/24 06:25:16;;;;;;;8.93;4.97;;;20.40;99.90;;;;;;4973984;28;20027;-71
2023/06/24 06:27:42;;;;;;;8.40;4.22;;;20.40;99.90;;;;;;4965506;28;20502;-70
2023/06/24 06:30:08;;;;;;;7.97;4.75;;;20.40;99.90;;;;;;4998175;28;20030;-70
2023/06/24 06:32:34;;;;;;;5.40;4.05;;;20.40;99.90;;;;;;4990168;28;20403;-70
2023/06/24 06:34:59;;;;;;;8.23;4.32;;;20.40;99.90;;;;;;4961190;28;20062;-70
2023/06/24 06:37:25;;;;;;;9.57;4.43;;;20.50;99.90;;;;;;4975366;28;20031;-71
2023/06/24 06:39:50;;;;;;;7.38;3.80;;;20.70;99.90;;;;;;4979653;28;20054;-70
2023/06/24 06:42:16;;;;;;;7.30;4.90;;;20.60;99.90;;;;;;4997177;28;20027;-70
2023/06/24 06:44:41;;;;;;;6.10;3.92;;;20.70;99.90;;;;;;4976156;28;20031;-70
2023/06/24 06:47:07;;;;;;;6.65;4.65;;;20.80;99.90;;;;;;4989444;28;20038;-71
2023/06/24 06:49:33;;;;;;;19.88;16.17;;;20.90;99.90;;;;;;4977866;28;20100;-70
2023/06/24 06:51:58;;;;;;;7.75;4.13;;;21.00;99.90;;;;;;4996600;28;20053;-69
2023/06/24 06:54:24;;;;;;;6.60;3.80;;;21.20;99.90;;;;;;4997629;28;20117;-69
2023/06/24 06:56:49;;;;;;;5.43;4.18;;;21.30;99.90;;;;;;4980088;28;20119;-69
2023/06/24 06:59:15;;;;;;;5.60;4.05;;;21.50;99.90;;;;;;4979793;28;20033;-69
2023/06/24 07:01:40;;;;;;;5.45;4.10;;;21.60;99.90;;;;;;4979719;28;20376;-70
2023/06/24 07:04:06;;;;;;;6.65;4.03;;;21.70;99.90;;;;;;4997500;28;20038;-69
2023/06/24 07:06:32;;;;;;;5.72;4.07;;;21.80;99.90;;;;;;4979605;28;20029;-69
2023/06/24 07:08:58;;;;;;;;;;;21.90;99.90;;;;;;4979516;28;20026;-70
2023/06/24 07:11:23;;;;;;;4.68;4.07;;;21.90;99.90;;;;;;4979154;28;19917;-70
2023/06/24 07:13:51;;;;;;;6.88;4.15;;;22.10;99.90;;;;;;4979477;28;20036;-70
2023/06/24 07:16:17;;;;;;;7.72;4.55;;;22.10;99.90;;;;;;4978524;28;20039;-69
2023/06/24 07:18:42;;;;;;;;;;;22.30;99.90;;;;;;4979672;28;20022;-67
2023/06/24 07:21:08;;;;;;;9.80;4.00;;;22.20;99.90;;;;;;4996049;28;20265;-67
2023/06/24 07:23:33;;;;;;;5.47;3.90;;;22.20;99.90;;;;;;4978104;28;20041;-66
2023/06/24 07:25:59;;;;;;;;;;;22.40;99.90;;;;;;4996491;28;20031;-66
2023/06/24 07:28:24;;;;;;;5.65;3.92;;;22.40;99.90;;;;;;4995638;28;20038;-67
2023/06/24 07:30:50;;;;;;;4.35;3.60;;;22.50;99.90;;;;;;4978796;28;20041;-66
2023/06/24 07:33:15;;;;;;;;;;;22.50;99.90;;;;;;4996130;28;20034;-66
2023/06/24 07:35:41;;;;;;;6.63;3.97;;;22.70;99.90;;;;;;4978591;28;19906;-66
2023/06/24 07:38:06;;;;;;;;;;;22.80;99.40;;;;;;4997396;28;20034;-66
2023/06/24 07:40:32;;;;;;;4.63;3.83;;;22.90;99.10;;;;;;4995868;28;19913;-66
2023/06/24 07:42:57;;;;;;;;;;;23.00;99.00;;;;;;4996393;28;20459;-65
2023/06/24 07:45:23;;;;;;;9.93;5.82;;;23.30;98.70;;;;;;4995499;28;19920;-66
2023/06/24 07:47:49;;;;;;;;;;;23.80;98.20;;;;;;4996299;28;20467;-66
2023/06/24 07:50:14;;;;;;;5.82;3.78;;;25.40;96.90;;;;;;4995210;28;20358;-62
2023/06/24 07:52:40;;;;;;;4.32;3.63;;;27.60;94.20;;;;;;4994788;28;20034;-63
2023/06/24 07:55:05;;;;;;;5.05;3.50;;;29.10;91.00;;;;;;4995180;28;20110;-63
2023/06/24 07:57:31;;;;;;;4.50;3.20;;;29.70;89.50;;;;;;4995836;28;20033;-63
2023/06/24 07:59:57;;;;;;;4.60;3.60;;;29.30;87.00;;;;;;4991002;28;20089;-64
2023/06/24 08:02:24;;;;;;;7.10;3.42;;;29.10;87.80;;;;;;4989713;28;20037;-64
2023/06/24 08:04:50;;;;;;;6.13;3.75;;;28.50;88.60;;;;;;4994449;28;20033;-63
2023/06/24 08:07:15;;;;;;;6.07;3.40;;;28.20;87.90;;;;;;4993826;28;20036;-63
2023/06/24 08:09:41;;;;;;;4.03;3.47;;;28.50;88.40;;;;;;4976136;28;20114;-63
2023/06/24 08:12:07;;;;;;;5.85;3.10;;;30.00;84.70;;;;;;4991384;28;20097;-64
2023/06/24 08:14:32;;;;;;;3.60;3.30;;;32.30;80.50;;;;;;4985032;28;20460;-63
2023/06/24 08:16:58;;;;;;;4.25;3.47;;;34.20;74.90;;;;;;4993170;28;20045;-64
2023/06/24 08:19:24;;;;;;;5.22;3.38;;;35.40;70.80;;;;;;4994846;28;20105;-64
2023/06/24 08:21:49;;;;;;;4.97;3.20;;;36.00;67.80;;;;;;4994694;28;20069;-64
2023/06/24 08:24:15;;;;;;;3.67;3.30;;;37.00;66.10;;;;;;4994515;28;20494;-63
2023/06/24 08:26:40;;;;;;;4.07;3.10;;;38.50;63.10;;;;;;4977282;28;20030;-66
2023/06/24 08:29:43;;;;;;;3.70;3.40;;;39.40;60.70;;;;;;4995003;28;20026;-65
2023/06/24 08:32:28;;;;;;;3.90;3.60;;;39.70;58.30;;;;;;4958283;28;20027;-66
2023/06/24 08:34:53;;;;;;;5.25;3.30;;;39.00;57.30;;;;;;4976256;28;20035;-70
2023/06/24 08:37:19;;;;;;;6.80;2.95;;;38.80;58.10;;;;;;4994906;28;20049;-66
2023/06/24 08:39:44;;;;;;;3.25;2.95;;;39.50;56.90;;;;;;4995867;28;20101;-67
2023/06/24 08:42:10;;;;;;;4.30;3.47;;;40.40;55.30;;;;;;4980815;28;20023;-66
2023/06/24 08:44:35;;;;;;;3.20;2.90;;;41.00;54.20;;;;;;4974218;28;20030;-66
2023/06/24 08:47:01;;;;;;;4.00;3.20;;;41.20;53.20;;;;;;4975550;28;20033;-66
2023/06/24 08:49:31;;;;;;;5.55;3.03;;;42.00;53.10;;;;;;4974591;28;20031;-66
2023/06/24 08:52:08;;;;;;;4.97;3.35;;;42.30;51.70;;;;;;4975508;28;20026;-67
2023/06/24 08:54:38;;;;;;;3.83;3.35;;;41.80;50.30;;;;;;4975455;28;20081;-65
2023/06/24 08:57:10;;;;;;;3.20;2.90;;;41.10;52.00;;;;;;4975366;28;20023;-65
2023/06/24 08:59:37;;;;;;;3.60;3.30;;;41.60;51.10;;;;;;4984203;28;20018;-66
2023/06/24 09:02:03;;;;;;;4.80;2.72;;;42.10;51.00;;;;;;4995081;28;20537;-66
2023/06/24 09:04:29;;;;;;;5.15;2.90;;;42.10;50.50;;;;;;4994991;28;20034;-66
2023/06/24 09:06:54;;;;;;;3.30;2.78;;;41.80;50.10;;;;;;4982032;28;20105;-67
2023/06/24 09:09:21;;;;;;;3.60;3.30;;;41.80;49.50;;;;;;4974952;28;20035;-67
2023/06/24 09:11:58;;;;;;;3.22;2.78;;;41.60;48.90;;;;;;4977488;28;20029;-67
2023/06/24 09:14:25;;;;;;;3.72;2.95;;;41.20;49.50;;;;;;4977161;28;20428;-67
2023/06/24 09:16:58;;;;;;;5.90;3.72;;;40.60;50.40;;;;;;4979632;28;20026;-67
2023/06/24 09:19:36;;;;;;;5.63;3.05;;;40.70;50.50;;;;;;4982854;28;20061;-66
2023/06/24 09:22:03;;;;;;;3.58;3.10;;;40.70;50.10;;;;;;4977177;28;20030;-67
2023/06/24 09:24:32;;;;;;;4.18;2.90;;;40.90;49.60;;;;;;4977175;28;20023;-67
2023/06/24 09:26:58;;;;;;;4.82;3.90;;;41.00;50.50;;;;;;4994250;28;20509;-66
2023/06/24 09:29:28;;;;;;;6.13;3.20;;;41.30;50.00;;;;;;4976818;28;20042;-67
2023/06/24 09:31:55;;;;;;;4.07;3.20;;;40.90;49.80;;;;;;4994860;28;20436;-66
2023/06/24 09:34:21;;;;;;;3.40;3.03;;;40.70;50.40;;;;;;4977225;28;20030;-67
2023/06/24 09:36:55;;;;;;;3.50;3.20;;;40.90;50.20;;;;;;4994284;28;20361;-65
2023/06/24 09:39:22;;;;;;;3.83;3.20;;;41.70;50.10;;;;;;4977586;28;20057;-66
2023/06/24 09:41:51;;;;;;;4.97;3.30;;;42.10;48.40;;;;;;4999727;28;20348;-65
2023/06/24 09:44:19;;;;;;;3.80;3.28;;;42.10;47.20;;;;;;5001193;28;20023;-66
2023/06/24 09:46:45;;;;;;;3.78;3.17;;;42.50;47.70;;;;;;5001183;28;20030;-65
2023/06/24 09:49:11;;;;;;;3.47;3.17;;;41.10;48.50;;;;;;5001397;28;20045;-66
2023/06/24 09:51:47;;;;;;;4.10;3.45;;;41.20;49.10;;;;;;4998742;28;20486;-66
2023/06/24 09:54:14;;;;;;;3.38;2.80;;;40.20;49.70;;;;;;4998263;28;20026;-66
2023/06/24 09:56:44;;;;;;;3.55;3.25;;;41.20;49.40;;;;;;4997866;28;20023;-64
2023/06/24 09:59:12;;;;;;;3.70;3.17;;;41.60;48.60;;;;;;4997447;28;20030;-66
2023/06/24 10:01:39;;;;;;;3.78;2.92;;;41.00;48.40;;;;;;4997921;28;20229;-66
2023/06/24 10:04:07;;;;;;;3.42;3.10;;;41.00;48.20;;;;;;4998200;28;20030;-67
2023/06/24 10:06:34;;;;;;;3.00;2.70;;;40.90;48.20;;;;;;4997856;28;20037;-65
2023/06/24 10:09:00;;;;;;;3.40;3.10;;;40.20;48.50;;;;;;4997853;28;20475;-65
2023/06/24 10:11:26;;;;;;;5.25;3.08;;;40.80;47.80;;;;;;4998161;28;20053;-67
2023/06/24 10:13:53;;;;;;;3.40;3.10;;;40.90;48.10;;;;;;4980247;28;20531;-66
2023/06/24 10:16:19;;;;;;;3.10;2.85;;;41.30;47.80;;;;;;5018220;23;20182;-65
2023/06/24 10:18:45;;;;;;;4.07;2.80;;;41.80;47.20;;;;;;4997497;28;20086;-66
2023/06/24 10:21:11;;;;;;;4.88;3.17;;;41.20;47.30;;;;;;4998772;28;20022;-66
2023/06/24 10:23:42;;;;;;;4.07;2.90;;;40.70;48.20;;;;;;4978469;28;20399;-66
2023/06/24 10:26:10;;;;;;;2.70;2.50;;;40.10;47.10;;;;;;4960334;28;20023;-66
2023/06/24 10:29:08;;;;;;;3.70;2.83;;;39.80;47.30;;;;;;4977566;28;20051;-65
2023/06/24 10:31:39;;;;;;;3.20;2.90;;;39.00;48.30;;;;;;4977629;28;20407;-67
2023/06/24 10:34:33;;;;;;;4.32;2.80;;;39.00;48.30;;;;;;4977257;28;20026;-66
2023/06/24 10:37:08;;;;;;;4.63;3.92;;;39.10;48.40;;;;;;4974352;28;20046;-67
2023/06/24 10:39:50;;;;;;;3.22;2.70;;;38.70;48.40;;;;;;4977873;28;20349;-66
2023/06/24 10:42:41;;;;;;;2.95;2.70;;;39.50;47.20;;;;;;4977612;28;20022;-66
2023/06/24 10:45:10;;;;;;;4.05;2.97;;;39.80;47.20;;;;;;4977058;28;20029;-69
2023/06/24 10:47:38;;;;;;;3.10;2.58;;;40.20;47.50;;;;;;4977056;28;20023;-67
2023/06/24 10:50:04;;;;;;;3.63;2.90;;;40.90;47.60;;;;;;4976716;28;20050;-68
2023/06/24 10:52:30;;;;;;;3.15;2.85;;;41.50;47.30;;;;;;4976977;28;20023;-69
2023/06/24 10:54:57;;;;;;;3.80;2.80;;;41.40;47.20;;;;;;4977216;28;20475;-67
2023/06/24 10:57:27;;;;;;;3.25;2.95;;;41.30;46.30;;;;;;4976804;28;20031;-66
2023/06/24 10:59:57;;;;;;;3.47;2.95;;;41.60;46.30;;;;;;4977083;28;20483;-66
2023/06/24 11:02:24;;;;;;;4.15;2.78;;;41.10;46.20;;;;;;4976671;28;20165;-66
2023/06/24 11:04:52;;;;;;;3.97;2.95;;;41.10;46.60;;;;;;4976899;28;20023;-67
2023/06/24 11:07:22;;;;;;;2.75;2.53;;;40.40;45.70;;;;;;4959732;28;20435;-66
2023/06/24 11:09:56;;;;;;;3.15;2.83;;;39.80;45.90;;;;;;4959655;28;20049;-66
2023/06/24 11:12:27;;;;;;;3.20;2.90;;;39.30;46.80;;;;;;4977199;28;20026;-68
2023/06/24 11:15:05;;;;;;;3.25;2.72;;;38.70;47.10;;;;;;4976880;28;20030;-66
2023/06/24 11:17:32;;;;;;;2.95;2.70;;;37.00;49.10;;;;;;4989278;28;20041;-66
2023/06/24 11:19:58;;;;;;;5.15;2.78;;;35.80;49.80;;;;;;4996603;28;20022;-66
2023/06/24 11:22:25;;;;;;;3.13;2.75;;;34.50;49.90;;;;;;4996740;28;20109;-66
2023/06/24 11:24:51;;;;;;;3.30;2.80;;;33.60;50.30;;;;;;4980282;28;20478;-67
2023/06/24 11:27:23;;;;;;;3.10;2.70;;;33.00;51.60;;;;;;4998584;28;20024;-67
2023/06/24 11:29:52;;;;;;;4.50;2.88;;;32.30;52.30;;;;;;4979610;28;20026;-67
2023/06/24 11:32:17;;;;;;;4.07;3.35;;;31.90;52.30;;;;;;4995659;28;20035;-66
2023/06/24 11:34:43;;;;;;;3.53;2.80;;;31.60;52.30;;;;;;4983631;28;20035;-67
2023/06/24 11:37:13;;;;;;;3.55;3.08;;;31.20;53.20;;;;;;4956953;28;20063;-68
2023/06/24 11:39:39;;;;;;;3.40;3.00;;;31.10;54.50;;;;;;4965835;28;20026;-66
2023/06/24 11:42:08;;;;;;;6.78;3.33;;;31.10;55.60;;;;;;4968702;28;20173;-67
2023/06/24 11:44:33;;;;;;;5.25;3.25;;;30.90;55.20;;;;;;4968872;28;20094;-65
2023/06/24 11:47:09;;;;;;;3.17;2.88;;;30.30;55.90;;;;;;4947073;28;20562;-66
2023/06/24 11:49:55;;;;;;;4.40;2.67;;;30.10;55.30;;;;;;4958693;28;20118;-66
2023/06/24 11:52:43;;;;;;;4.82;3.20;;;29.90;56.60;;;;;;4975667;28;20023;-68
2023/06/24 11:55:20;;;;;;;4.03;3.33;;;29.70;56.90;;;;;;4938652;29;20098;-67
2023/06/24 11:57:55;;;;;;;3.72;3.15;;;29.40;57.60;;;;;;4968132;28;20042;-67
2023/06/24 12:00:23;;;;;;;4.10;3.03;;;29.20;57.10;;;;;;4950270;29;20436;-66
2023/06/24 12:02:57;;;;;;;5.35;3.05;;;29.10;57.30;;;;;;4952236;28;20286;-67
2023/06/24 12:05:30;;;;;;;3.22;2.92;;;29.10;57.10;;;;;;4969655;28;20019;-66
2023/06/24 12:07:58;;;;;;;3.88;3.10;;;29.00;56.80;;;;;;4964333;28;20023;-66
2023/06/24 12:10:24;;;;;;;4.40;3.03;;;28.90;56.70;;;;;;4967791;28;20011;-70
2023/06/24 12:12:50;;;;;;;5.05;3.58;;;29.00;57.50;;;;;;4940242;29;20051;-71
2023/06/24 12:15:16;;;;;;;3.22;2.90;;;29.10;57.70;;;;;;4957084;29;20353;-72
2023/06/24 12:17:41;;;;;;;4.78;2.80;;;29.20;55.70;;;;;;4970278;28;20081;-71
2023/06/24 12:20:08;;;;;;;3.83;3.17;;;29.40;55.40;;;;;;4975979;28;20054;-71
2023/06/24 12:22:33;;;;;;;3.58;3.13;;;29.50;56.20;;;;;;4975639;28;20110;-71
2023/06/24 12:24:59;;;;;;;3.47;3.17;;;29.10;56.70;;;;;;4975303;28;20494;-70
2023/06/24 12:27:24;;;;;;;4.97;2.90;;;29.00;57.10;;;;;;4975177;28;20108;-71
2023/06/24 12:29:50;;;;;;;5.25;2.70;;;29.10;56.80;;;;;;4975360;28;20027;-71
2023/06/24 12:32:16;;;;;;;4.05;2.65;;;29.20;55.80;;;;;;4974851;28;20054;-70
2023/06/24 12:34:41;;;;;;;3.85;3.20;;;29.30;56.30;;;;;;4974982;28;20491;-72
2023/06/24 12:37:07;;;;;;;3.55;2.80;;;29.30;56.60;;;;;;4957643;28;20048;-71
2023/06/24 12:39:32;;;;;;;3.78;2.75;;;29.40;56.60;;;;;;4976163;28;20365;-71
2023/06/24 12:41:58;;;;;;;5.10;3.10;;;29.40;56.90;;;;;;4975732;28;20531;-72
2023/06/24 12:44:23;;;;;;;3.22;2.92;;;29.40;57.10;;;;;;4975949;28;20023;-71
2023/06/24 12:46:49;;;;;;;3.67;3.05;;;29.40;56.00;;;;;;4981976;28;20018;-71
2023/06/24 12:49:14;;;;;;;3.20;2.90;;;29.30;55.80;;;;;;4978184;28;20037;-72
2023/06/24 12:51:40;;;;;;;4.20;3.03;;;29.20;56.40;;;;;;4978182;28;20030;-67
2023/06/24 12:54:05;;;;;;;4.47;3.45;;;29.20;56.70;;;;;;4974018;28;20023;-73
2023/06/24 12:56:31;;;;;;;4.22;2.80;;;29.30;56.30;;;;;;4976194;28;20452;-72
2023/06/24 12:58:56;;;;;;;4.95;2.92;;;29.30;56.60;;;;;;4975537;28;20023;-72
2023/06/24 13:01:22;;;;;;;6.53;2.92;;;29.20;56.20;;;;;;4958026;28;20479;-72
2023/06/24 13:03:47;;;;;;;3.78;2.80;;;29.30;55.20;;;;;;4975291;28;20035;-72
2023/06/24 13:06:14;;;;;;;3.63;2.97;;;29.30;55.20;;;;;;4975293;28;20033;-72
2023/06/24 13:08:39;;;;;;;3.63;2.80;;;29.30;54.90;;;;;;4957704;28;20105;-72
2023/06/24 13:11:05;;;;;;;4.43;2.75;;;29.30;54.90;;;;;;4974737;28;20089;-71
2023/06/24 13:13:30;;;;;;;3.85;3.00;;;29.20;55.40;;;;;;4957190;28;20055;-72
2023/06/24 13:15:56;;;;;;;3.40;2.92;;;29.10;54.70;;;;;;4974469;28;20030;-71
2023/06/24 13:18:21;;;;;;;4.20;3.30;;;29.10;55.50;;;;;;4993423;28;20072;-72
2023/06/24 13:20:47;;;;;;;3.53;2.78;;;29.20;56.20;;;;;;4993948;28;20022;-71
2023/06/24 13:23:12;;;;;;;3.83;2.90;;;29.20;55.80;;;;;;4994599;28;20036;-73
2023/06/24 13:25:38;;;;;;;4.43;3.20;;;29.10;56.30;;;;;;4994142;28;20029;-74
2023/06/24 13:28:04;;;;;;;4.07;2.75;;;29.20;56.90;;;;;;4994153;28;20027;-72
2023/06/24 13:30:29;;;;;;;3.85;2.80;;;29.30;56.90;;;;;;4987725;28;20019;-72
2023/06/24 13:32:55;;;;;;;3.90;2.88;;;29.40;56.30;;;;;;4970334;28;20468;-72
2023/06/24 13:35:20;;;;;;;4.72;3.00;;;29.40;56.10;;;;;;4954552;29;20038;-72
2023/06/24 13:37:46;;;;;;;4.10;3.63;;;29.50;56.20;;;;;;4957352;28;20024;-73
2023/06/24 13:40:12;;;;;;;4.00;2.72;;;29.70;56.20;;;;;;4959066;29;20412;-73
2023/06/24 13:42:37;;;;;;;3.95;2.83;;;29.70;55.60;;;;;;4959389;29;20035;-72
2023/06/24 13:45:04;;;;;;;3.13;2.83;;;29.70;55.30;;;;;;4939063;29;20384;-71
2023/06/24 13:47:29;;;;;;;3.42;2.80;;;29.50;54.60;;;;;;4978934;28;20018;-71
2023/06/24 13:49:55;;;;;;;4.25;2.72;;;29.40;54.80;;;;;;4976166;28;20081;-71
2023/06/24 13:52:21;;;;;;;4.60;2.90;;;29.40;54.20;;;;;;4976347;28;20057;-72
2023/06/24 13:54:46;;;;;;;5.05;2.85;;;29.40;54.30;;;;;;4993129;28;20126;-72
2023/06/24 13:57:12;;;;;;;3.40;3.10;;;29.50;55.30;;;;;;4976130;28;20026;-71
2023/06/24 13:59:38;;;;;;;2.78;2.55;;;29.70;53.90;;;;;;4976357;28;20129;-71
2023/06/24 14:02:03;;;;;;;3.63;2.90;;;29.70;53.40;;;;;;4993494;28;20030;-71
2023/06/24 14:04:31;;;;;;;4.72;2.90;;;29.70;54.30;;;;;;4993482;28;20023;-71
2023/06/24 14:06:56;;;;;;;4.18;3.25;;;29.80;54.60;;;;;;4977173;28;20058;-72
2023/06/24 14:09:22;;;;;;;4.38;3.00;;;29.80;54.20;;;;;;4993807;28;20023;-71
2023/06/24 14:11:47;;;;;;;3.42;3.03;;;29.80;54.00;;;;;;4993448;28;20475;-72
2023/06/24 14:14:13;;;;;;;5.10;2.95;;;29.70;54.10;;;;;;4981811;28;20105;-72
2023/06/24 14:16:38;;;;;;;4.88;3.17;;;29.70;54.00;;;;;;4962362;28;20054;-71
2023/06/24 14:19:04;;;;;;;3.40;3.10;;;29.70;54.50;;;;;;4993529;28;20066;-71
2023/06/24 14:21:31;;;;;;;3.42;3.03;;;29.40;54.60;;;;;;4993875;28;20031;-73
2023/06/24 14:23:57;;;;;;;5.32;2.92;;;29.50;54.90;;;;;;4993488;28;20487;-72
2023/06/24 14:26:23;;;;;;;3.75;3.10;;;29.50;54.80;;;;;;4977652;28;20081;-72
2023/06/24 14:28:48;;;;;;;4.90;3.33;;;29.50;55.10;;;;;;4979707;28;20062;-72
2023/06/24 14:31:14;;;;;;;6.03;3.00;;;29.70;54.40;;;;;;4979553;28;20029;-72
2023/06/24 14:33:40;;;;;;;2.85;2.53;;;29.70;53.90;;;;;;4979721;28;20562;-72
2023/06/24 14:36:05;;;;;;;3.40;2.70;;;29.70;53.10;;;;;;4979325;28;20030;-70
2023/06/24 14:38:31;;;;;;;4.30;3.00;;;29.70;53.30;;;;;;4996679;28;20041;-71
2023/06/24 14:40:56;;;;;;;3.88;3.10;;;29.70;53.50;;;;;;4996949;28;20022;-71
2023/06/24 14:43:22;;;;;;;5.00;3.17;;;29.80;53.90;;;;;;4974738;28;20023;-71
2023/06/24 14:45:48;;;;;;;3.50;3.20;;;29.90;54.20;;;;;;4977299;28;20077;-71
2023/06/24 14:48:14;;;;;;;4.43;3.33;;;29.90;54.60;;;;;;4993047;28;20072;-71
2023/06/24 14:50:40;;;;;;;3.47;2.67;;;29.90;53.60;;;;;;4942992;28;20110;-72
2023/06/24 14:53:06;;;;;;;3.30;3.00;;;29.90;53.90;;;;;;4972815;28;20526;-72
2023/06/24 14:55:31;;;;;;;3.58;2.92;;;29.90;53.60;;;;;;4974115;28;20028;-72
2023/06/24 14:57:57;;;;;;;5.15;3.45;;;29.80;53.70;;;;;;4966822;28;20023;-73
2023/06/24 15:00:23;;;;;;;2.80;2.60;;;29.70;54.60;;;;;;4951742;28;20055;-72
2023/06/24 15:02:48;;;;;;;3.67;2.72;;;29.70;53.70;;;;;;4967259;28;20063;-72
2023/06/24 15:05:14;;;;;;;4.35;3.15;;;29.70;53.80;;;;;;4953561;28;20019;-73
2023/06/24 15:07:39;;;;;;;3.78;2.90;;;29.70;54.40;;;;;;4949884;28;20138;-73
2023/06/24 15:10:06;;;;;;;5.13;2.67;;;29.80;54.30;;;;;;4950327;28;20023;-73
2023/06/24 15:12:31;;;;;;;7.45;3.45;;;29.80;54.10;;;;;;4969237;28;20555;-72
2023/06/24 15:14:57;;;;;;;3.15;2.80;;;29.70;54.10;;;;;;4948870;28;20023;-73
2023/06/24 15:17:23;;;;;;;3.63;2.88;;;29.60;53.80;;;;;;4951340;28;20077;-73
2023/06/24 15:19:48;;;;;;;4.88;3.40;;;29.50;54.00;;;;;;4969561;28;20106;-72
2023/06/24 15:22:14;;;;;;;4.68;3.13;;;29.50;54.70;;;;;;4976579;28;20027;-73
2023/06/24 15:24:39;;;;;;;3.75;2.95;;;29.60;54.70;;;;;;4959141;28;20031;-73
2023/06/24 15:27:05;;;;;;;4.03;2.90;;;29.60;54.40;;;;;;4976521;28;20042;-73
2023/06/24 15:29:30;;;;;;;3.42;2.72;;;29.60;54.70;;;;;;4959153;28;20089;-71
2023/06/24 15:31:56;;;;;;;5.28;3.30;;;29.70;54.50;;;;;;4974305;28;20031;-69
2023/06/24 15:34:21;;;;;;;3.92;2.92;;;29.60;54.70;;;;;;4953818;28;20052;-68
2023/06/24 15:36:47;;;;;;;3.30;2.78;;;29.50;54.60;;;;;;4959838;28;20030;-69
2023/06/24 15:39:12;;;;;;;3.70;3.30;;;29.40;55.00;;;;;;4955252;29;20041;-72
2023/06/24 15:41:38;;;;;;;4.18;3.30;;;29.40;55.40;;;;;;4963489;28;20502;-71
2023/06/24 15:44:07;;;;;;;3.60;3.10;;;29.40;55.30;;;;;;4953097;28;20081;-71
2023/06/24 15:46:32;;;;;;;3.25;2.80;;;29.30;55.50;;;;;;4972766;28;20037;-72
2023/06/24 15:48:58;;;;;;;3.30;2.97;;;29.20;55.60;;;;;;4956958;28;20027;-71
2023/06/24 15:51:24;;;;;;;3.45;3.05;;;29.30;55.00;;;;;;4959436;28;20019;-70
2023/06/24 15:53:49;;;;;;;3.38;2.92;;;29.20;55.20;;;;;;4958859;28;20026;-70
2023/06/24 15:56:15;;;;;;;3.47;2.97;;;29.20;56.00;;;;;;4976303;28;20023;-70
2023/06/24 15:58:40;;;;;;;5.40;3.25;;;29.30;56.20;;;;;;4958850;28;20031;-70
2023/06/24 16:01:06;;;;;;;4.75;3.30;;;29.40;55.60;;;;;;4971844;28;20081;-72
2023/06/24 16:03:31;;;;;;;7.13;3.03;;;29.40;55.10;;;;;;4957997;28;20114;-71
2023/06/24 16:05:57;;;;;;;3.53;3.20;;;29.40;55.40;;;;;;4975546;28;20029;-68
2023/06/24 16:08:22;;;;;;;5.00;3.10;;;29.30;55.50;;;;;;4971435;28;20467;-69
2023/06/24 16:10:48;;;;;;;3.10;2.70;;;29.30;55.70;;;;;;4963695;28;20030;-69
2023/06/24 16:13:14;;;;;;;4.53;3.20;;;29.20;55.80;;;;;;4975398;28;20022;-70
2023/06/24 16:15:39;;;;;;;5.07;4.57;;;29.10;56.90;;;;;;4975674;28;20038;-71
2023/06/24 16:18:05;;;;;;;4.25;2.70;;;29.10;55.40;;;;;;4992690;28;20069;-71
2023/06/24 16:20:30;;;;;;;4.57;3.00;;;29.00;55.40;;;;;;4977776;28;20026;-70
2023/06/24 16:22:56;;;;;;;4.53;3.50;;;28.90;55.30;;;;;;4994844;28;20027;-70
2023/06/24 16:25:21;;;;;;;5.00;2.97;;;29.00;55.30;;;;;;4977515;28;20033;-70
2023/06/24 16:27:47;;;;;;;3.80;3.00;;;29.00;55.30;;;;;;4949866;28;20485;-71
2023/06/24 16:30:12;;;;;;;3.67;2.70;;;29.00;55.80;;;;;;4962990;28;20586;-69
2023/06/24 16:32:38;;;;;;;4.20;2.92;;;29.10;55.80;;;;;;4975087;28;20022;-69
2023/06/24 16:35:04;;;;;;;3.35;3.05;;;29.00;56.10;;;;;;4969913;28;20027;-70
2023/06/24 16:37:30;;;;;;;3.92;3.00;;;29.00;56.30;;;;;;4954563;28;20520;-69
2023/06/24 16:39:56;;;;;;;4.13;3.20;;;29.10;56.90;;;;;;4968423;28;20057;-72
2023/06/24 16:42:22;;;;;;;4.03;3.58;;;29.00;56.10;;;;;;4975565;28;20051;-70
2023/06/24 16:44:47;;;;;;;5.20;3.50;;;28.90;56.40;;;;;;4975415;28;20034;-71
2023/06/24 16:47:13;;;;;;;5.20;3.22;;;28.90;56.30;;;;;;4984938;28;20100;-68